sensor_id;sensor_type;location;lat;lon;timestamp;P1;durP1;ratioP1;P2;durP2;ratioP2
58240;SDS011;45058;55.772;38.224;2023-10-13T00:00:38;7.47;;;1.17;;
58240;SDS011;45058;55.772;38.224;2023-10-13T00:03:08;5.85;;;1.10;;
58240;SDS011;45058;55.772;38.224;2023-10-13T00:05:40;4.55;;;0.90;;
58240;SDS011;45058;55.772;38.224;2023-10-13T00:08:08;5.55;;;1.10;;
58240;SDS011;45058;55.772;38.224;2023-10-13T00:10:34;4.05;;;0.80;;
58240;SDS011;45058;55.772;38.224;2023-10-13T00:13:01;7.65;;;1.10;;
58240;SDS011;45058;55.772;38.224;2023-10-13T00:18:28;8.05;;;1.20;;
58240;SDS011;45058;55.772;38.224;2023-10-13T00:21:13;5.32;;;1.90;;
58240;SDS011;45058;55.772;38.224;2023-10-13T00:24:01;7.68;;;1.25;;
58240;SDS011;45058;55.772;38.224;2023-10-13T00:26:31;9.25;;;1.50;;
58240;SDS011;45058;55.772;38.224;2023-10-13T00:29:02;7.55;;;1.80;;
58240;SDS011;45058;55.772;38.224;2023-10-13T00:31:54;5.70;;;1.80;;
58240;SDS011;45058;55.772;38.224;2023-10-13T00:34:20;5.25;;;1.60;;
58240;SDS011;45058;55.772;38.224;2023-10-13T00:36:53;7.28;;;1.98;;
58240;SDS011;45058;55.772;38.224;2023-10-13T00:39:37;10.93;;;2.17;;
58240;SDS011;45058;55.772;38.224;2023-10-13T00:42:14;11.40;;;2.58;;
58240;SDS011;45058;55.772;38.224;2023-10-13T00:44:45;9.23;;;2.42;;
58240;SDS011;45058;55.772;38.224;2023-10-13T00:47:18;11.02;;;2.20;;
58240;SDS011;45058;55.772;38.224;2023-10-13T00:50:03;6.05;;;1.80;;
58240;SDS011;45058;55.772;38.224;2023-10-13T00:52:30;8.13;;;2.33;;
58240;SDS011;45058;55.772;38.224;2023-10-13T00:54:58;8.73;;;1.73;;
58240;SDS011;45058;55.772;38.224;2023-10-13T00:57:25;9.23;;;3.03;;
58240;SDS011;45058;55.772;38.224;2023-10-13T01:03:12;6.03;;;1.40;;
58240;SDS011;45058;55.772;38.224;2023-10-13T01:08:31;7.95;;;1.75;;
58240;SDS011;45058;55.772;38.224;2023-10-13T01:11:06;11.27;;;1.90;;
58240;SDS011;45058;55.772;38.224;2023-10-13T01:13:33;12.13;;;2.03;;
58240;SDS011;45058;55.772;38.224;2023-10-13T01:16:03;10.70;;;1.83;;
58240;SDS011;45058;55.772;38.224;2023-10-13T01:18:33;7.75;;;1.20;;
58240;SDS011;45058;55.772;38.224;2023-10-13T01:21:12;10.82;;;1.60;;
58240;SDS011;45058;55.772;38.224;2023-10-13T01:23:42;8.98;;;1.40;;
58240;SDS011;45058;55.772;38.224;2023-10-13T01:26:10;8.93;;;1.08;;
58240;SDS011;45058;55.772;38.224;2023-10-13T01:28:38;7.13;;;1.67;;
58240;SDS011;45058;55.772;38.224;2023-10-13T01:31:11;9.38;;;1.58;;
58240;SDS011;45058;55.772;38.224;2023-10-13T01:33:58;7.28;;;1.58;;
58240;SDS011;45058;55.772;38.224;2023-10-13T01:36:24;7.45;;;1.90;;
58240;SDS011;45058;55.772;38.224;2023-10-13T01:38:54;6.28;;;1.40;;
58240;SDS011;45058;55.772;38.224;2023-10-13T01:41:21;7.32;;;1.73;;
58240;SDS011;45058;55.772;38.224;2023-10-13T01:43:48;6.80;;;1.60;;
58240;SDS011;45058;55.772;38.224;2023-10-13T01:46:14;7.18;;;1.70;;
58240;SDS011;45058;55.772;38.224;2023-10-13T01:48:44;8.88;;;1.45;;
58240;SDS011;45058;55.772;38.224;2023-10-13T01:51:11;9.43;;;1.50;;
58240;SDS011;45058;55.772;38.224;2023-10-13T01:53:37;8.38;;;1.67;;
58240;SDS011;45058;55.772;38.224;2023-10-13T01:56:05;4.53;;;1.48;;
58240;SDS011;45058;55.772;38.224;2023-10-13T01:58:39;10.35;;;1.60;;
58240;SDS011;45058;55.772;38.224;2023-10-13T02:01:09;8.88;;;1.63;;
58240;SDS011;45058;55.772;38.224;2023-10-13T02:03:36;9.07;;;1.48;;
58240;SDS011;45058;55.772;38.224;2023-10-13T02:06:12;9.45;;;1.77;;
58240;SDS011;45058;55.772;38.224;2023-10-13T02:08:42;10.93;;;1.83;;
58240;SDS011;45058;55.772;38.224;2023-10-13T02:11:09;9.05;;;2.42;;
58240;SDS011;45058;55.772;38.224;2023-10-13T02:13:37;9.27;;;1.88;;
58240;SDS011;45058;55.772;38.224;2023-10-13T02:16:13;9.35;;;2.03;;
58240;SDS011;45058;55.772;38.224;2023-10-13T02:18:44;5.20;;;1.50;;
58240;SDS011;45058;55.772;38.224;2023-10-13T02:21:10;11.75;;;1.48;;
58240;SDS011;45058;55.772;38.224;2023-10-13T02:23:42;9.60;;;1.65;;
58240;SDS011;45058;55.772;38.224;2023-10-13T02:26:12;6.15;;;1.42;;
58240;SDS011;45058;55.772;38.224;2023-10-13T02:28:40;8.38;;;1.23;;
58240;SDS011;45058;55.772;38.224;2023-10-13T02:31:07;8.40;;;2.05;;
58240;SDS011;45058;55.772;38.224;2023-10-13T02:33:33;6.55;;;1.60;;
58240;SDS011;45058;55.772;38.224;2023-10-13T02:36:00;8.30;;;1.67;;
58240;SDS011;45058;55.772;38.224;2023-10-13T02:38:30;10.32;;;1.80;;
58240;SDS011;45058;55.772;38.224;2023-10-13T02:41:17;15.95;;;2.70;;
58240;SDS011;45058;55.772;38.224;2023-10-13T02:43:51;8.77;;;2.08;;
58240;SDS011;45058;55.772;38.224;2023-10-13T02:46:21;8.38;;;1.52;;
58240;SDS011;45058;55.772;38.224;2023-10-13T02:48:49;12.07;;;1.95;;
58240;SDS011;45058;55.772;38.224;2023-10-13T02:51:23;12.07;;;1.95;;
58240;SDS011;45058;55.772;38.224;2023-10-13T02:54:01;7.45;;;1.60;;
58240;SDS011;45058;55.772;38.224;2023-10-13T02:56:38;8.30;;;1.45;;
58240;SDS011;45058;55.772;38.224;2023-10-13T02:59:23;8.70;;;1.97;;
58240;SDS011;45058;55.772;38.224;2023-10-13T03:02:08;11.75;;;2.10;;
58240;SDS011;45058;55.772;38.224;2023-10-13T03:04:49;12.48;;;1.73;;
58240;SDS011;45058;55.772;38.224;2023-10-13T03:07:16;5.35;;;1.70;;
58240;SDS011;45058;55.772;38.224;2023-10-13T03:09:48;9.27;;;2.25;;
58240;SDS011;45058;55.772;38.224;2023-10-13T03:12:18;8.23;;;1.67;;
58240;SDS011;45058;55.772;38.224;2023-10-13T03:14:44;11.02;;;2.15;;
58240;SDS011;45058;55.772;38.224;2023-10-13T03:17:13;8.55;;;2.47;;
58240;SDS011;45058;55.772;38.224;2023-10-13T03:19:45;12.82;;;1.90;;
58240;SDS011;45058;55.772;38.224;2023-10-13T03:22:15;8.52;;;1.42;;
58240;SDS011;45058;55.772;38.224;2023-10-13T03:24:42;9.63;;;2.30;;
58240;SDS011;45058;55.772;38.224;2023-10-13T03:27:18;5.95;;;1.27;;
58240;SDS011;45058;55.772;38.224;2023-10-13T03:30:04;9.38;;;1.73;;
58240;SDS011;45058;55.772;38.224;2023-10-13T03:32:40;11.95;;;2.17;;
58240;SDS011;45058;55.772;38.224;2023-10-13T03:35:11;8.63;;;2.03;;
58240;SDS011;45058;55.772;38.224;2023-10-13T03:37:39;9.38;;;1.60;;
58240;SDS011;45058;55.772;38.224;2023-10-13T03:40:09;7.95;;;2.47;;
58240;SDS011;45058;55.772;38.224;2023-10-13T03:42:49;13.63;;;3.10;;
58240;SDS011;45058;55.772;38.224;2023-10-13T03:48:08;10.25;;;2.30;;
58240;SDS011;45058;55.772;38.224;2023-10-13T03:50:35;9.23;;;2.08;;
58240;SDS011;45058;55.772;38.224;2023-10-13T03:53:02;9.45;;;1.50;;
58240;SDS011;45058;55.772;38.224;2023-10-13T03:55:29;12.18;;;2.13;;
58240;SDS011;45058;55.772;38.224;2023-10-13T03:57:55;9.77;;;1.98;;
58240;SDS011;45058;55.772;38.224;2023-10-13T04:00:25;11.93;;;2.05;;
58240;SDS011;45058;55.772;38.224;2023-10-13T04:02:52;10.43;;;2.60;;
58240;SDS011;45058;55.772;38.224;2023-10-13T04:05:27;19.88;;;3.05;;
58240;SDS011;45058;55.772;38.224;2023-10-13T04:08:04;11.93;;;2.15;;
58240;SDS011;45058;55.772;38.224;2023-10-13T04:10:49;8.93;;;1.75;;
58240;SDS011;45058;55.772;38.224;2023-10-13T04:13:16;13.30;;;2.42;;
58240;SDS011;45058;55.772;38.224;2023-10-13T04:16:01;11.65;;;1.98;;
58240;SDS011;45058;55.772;38.224;2023-10-13T04:18:40;5.03;;;1.85;;
58240;SDS011;45058;55.772;38.224;2023-10-13T04:21:21;9.43;;;1.90;;
58240;SDS011;45058;55.772;38.224;2023-10-13T04:24:11;9.35;;;2.15;;
58240;SDS011;45058;55.772;38.224;2023-10-13T04:26:44;5.30;;;1.70;;
58240;SDS011;45058;55.772;38.224;2023-10-13T04:29:29;12.25;;;2.35;;
58240;SDS011;45058;55.772;38.224;2023-10-13T04:32:14;13.70;;;1.80;;
58240;SDS011;45058;55.772;38.224;2023-10-13T04:35:37;7.03;;;1.70;;
58240;SDS011;45058;55.772;38.224;2023-10-13T04:38:13;9.23;;;1.55;;
58240;SDS011;45058;55.772;38.224;2023-10-13T04:40:45;9.65;;;1.90;;
58240;SDS011;45058;55.772;38.224;2023-10-13T04:43:24;11.93;;;1.90;;
58240;SDS011;45058;55.772;38.224;2023-10-13T04:46:19;14.23;;;2.00;;
58240;SDS011;45058;55.772;38.224;2023-10-13T04:49:04;8.68;;;1.50;;
58240;SDS011;45058;55.772;38.224;2023-10-13T04:51:55;10.30;;;1.60;;
58240;SDS011;45058;55.772;38.224;2023-10-13T04:54:27;7.53;;;2.03;;
58240;SDS011;45058;55.772;38.224;2023-10-13T04:57:11;8.68;;;1.55;;
58240;SDS011;45058;55.772;38.224;2023-10-13T04:59:56;9.00;;;1.80;;
58240;SDS011;45058;55.772;38.224;2023-10-13T05:02:38;10.40;;;1.65;;
58240;SDS011;45058;55.772;38.224;2023-10-13T05:05:09;10.05;;;1.80;;
58240;SDS011;45058;55.772;38.224;2023-10-13T05:07:40;12.32;;;1.75;;
58240;SDS011;45058;55.772;38.224;2023-10-13T05:10:25;6.53;;;1.73;;
58240;SDS011;45058;55.772;38.224;2023-10-13T05:13:12;9.20;;;1.77;;
58240;SDS011;45058;55.772;38.224;2023-10-13T05:15:57;13.45;;;1.50;;
58240;SDS011;45058;55.772;38.224;2023-10-13T05:18:41;8.25;;;1.65;;
58240;SDS011;45058;55.772;38.224;2023-10-13T05:21:25;11.02;;;1.60;;
58240;SDS011;45058;55.772;38.224;2023-10-13T05:24:10;10.48;;;2.05;;
58240;SDS011;45058;55.772;38.224;2023-10-13T05:26:54;7.18;;;1.20;;
58240;SDS011;45058;55.772;38.224;2023-10-13T05:29:39;9.00;;;2.08;;
58240;SDS011;45058;55.772;38.224;2023-10-13T05:32:29;9.20;;;1.52;;
58240;SDS011;45058;55.772;38.224;2023-10-13T05:35:13;12.65;;;1.65;;
58240;SDS011;45058;55.772;38.224;2023-10-13T05:37:59;5.18;;;1.13;;
58240;SDS011;45058;55.772;38.224;2023-10-13T05:40:57;8.48;;;1.55;;
58240;SDS011;45058;55.772;38.224;2023-10-13T05:43:59;11.82;;;1.63;;
58240;SDS011;45058;55.772;38.224;2023-10-13T05:46:43;8.30;;;1.45;;
58240;SDS011;45058;55.772;38.224;2023-10-13T05:49:36;7.75;;;1.85;;
58240;SDS011;45058;55.772;38.224;2023-10-13T05:52:30;8.65;;;1.20;;
58240;SDS011;45058;55.772;38.224;2023-10-13T05:55:14;8.18;;;1.42;;
58240;SDS011;45058;55.772;38.224;2023-10-13T05:58:19;9.70;;;1.73;;
58240;SDS011;45058;55.772;38.224;2023-10-13T06:01:03;8.07;;;1.48;;
58240;SDS011;45058;55.772;38.224;2023-10-13T06:03:48;12.30;;;2.08;;
58240;SDS011;45058;55.772;38.224;2023-10-13T06:06:32;8.93;;;2.30;;
58240;SDS011;45058;55.772;38.224;2023-10-13T06:09:17;8.05;;;1.63;;
58240;SDS011;45058;55.772;38.224;2023-10-13T06:12:01;4.28;;;1.45;;
58240;SDS011;45058;55.772;38.224;2023-10-13T06:14:46;10.88;;;1.60;;
58240;SDS011;45058;55.772;38.224;2023-10-13T06:17:31;8.40;;;1.60;;
58240;SDS011;45058;55.772;38.224;2023-10-13T06:20:15;9.02;;;1.38;;
58240;SDS011;45058;55.772;38.224;2023-10-13T06:23:00;8.18;;;1.27;;
58240;SDS011;45058;55.772;38.224;2023-10-13T06:25:51;6.22;;;1.00;;
58240;SDS011;45058;55.772;38.224;2023-10-13T06:28:36;12.18;;;1.85;;
58240;SDS011;45058;55.772;38.224;2023-10-13T06:31:09;5.22;;;1.30;;
58240;SDS011;45058;55.772;38.224;2023-10-13T06:33:49;13.90;;;2.65;;
58240;SDS011;45058;55.772;38.224;2023-10-13T06:36:15;5.55;;;1.50;;
58240;SDS011;45058;55.772;38.224;2023-10-13T06:38:43;7.05;;;2.08;;
58240;SDS011;45058;55.772;38.224;2023-10-13T06:41:09;5.88;;;2.08;;
58240;SDS011;45058;55.772;38.224;2023-10-13T06:43:45;6.68;;;2.20;;
58240;SDS011;45058;55.772;38.224;2023-10-13T06:46:11;6.30;;;2.33;;
58240;SDS011;45058;55.772;38.224;2023-10-13T06:48:49;4.68;;;1.50;;
58240;SDS011;45058;55.772;38.224;2023-10-13T06:51:19;4.07;;;1.30;;
58240;SDS011;45058;55.772;38.224;2023-10-13T06:53:48;4.25;;;1.15;;
58240;SDS011;45058;55.772;38.224;2023-10-13T06:56:17;5.38;;;1.73;;
58240;SDS011;45058;55.772;38.224;2023-10-13T06:58:55;9.48;;;2.05;;
58240;SDS011;45058;55.772;38.224;2023-10-13T07:01:26;7.78;;;1.50;;
58240;SDS011;45058;55.772;38.224;2023-10-13T07:03:52;11.93;;;3.38;;
58240;SDS011;45058;55.772;38.224;2023-10-13T07:06:19;8.40;;;2.22;;
58240;SDS011;45058;55.772;38.224;2023-10-13T07:08:46;5.82;;;1.25;;
58240;SDS011;45058;55.772;38.224;2023-10-13T07:11:26;5.60;;;0.70;;
58240;SDS011;45058;55.772;38.224;2023-10-13T07:13:59;4.65;;;1.08;;
58240;SDS011;45058;55.772;38.224;2023-10-13T07:16:36;8.63;;;1.42;;
58240;SDS011;45058;55.772;38.224;2023-10-13T07:19:12;5.03;;;1.02;;
58240;SDS011;45058;55.772;38.224;2023-10-13T07:24:47;2.35;;;0.70;;
58240;SDS011;45058;55.772;38.224;2023-10-13T07:30:21;4.40;;;0.80;;
58240;SDS011;45058;55.772;38.224;2023-10-13T07:32:52;4.28;;;0.80;;
58240;SDS011;45058;55.772;38.224;2023-10-13T07:35:19;5.15;;;0.93;;
58240;SDS011;45058;55.772;38.224;2023-10-13T07:37:46;4.90;;;1.00;;
58240;SDS011;45058;55.772;38.224;2023-10-13T07:40:18;1.88;;;0.50;;
58240;SDS011;45058;55.772;38.224;2023-10-13T07:42:53;1.80;;;0.70;;
58240;SDS011;45058;55.772;38.224;2023-10-13T07:45:36;2.28;;;0.70;;
58240;SDS011;45058;55.772;38.224;2023-10-13T07:48:06;2.80;;;0.70;;
58240;SDS011;45058;55.772;38.224;2023-10-13T07:50:46;7.05;;;0.70;;
58240;SDS011;45058;55.772;38.224;2023-10-13T07:53:14;3.35;;;1.17;;
58240;SDS011;45058;55.772;38.224;2023-10-13T07:55:52;3.53;;;0.57;;
58240;SDS011;45058;55.772;38.224;2023-10-13T07:58:21;4.95;;;0.60;;
58240;SDS011;45058;55.772;38.224;2023-10-13T08:00:51;4.65;;;0.80;;
58240;SDS011;45058;55.772;38.224;2023-10-13T08:03:40;3.20;;;1.15;;
58240;SDS011;45058;55.772;38.224;2023-10-13T08:06:13;2.53;;;1.00;;
58240;SDS011;45058;55.772;38.224;2023-10-13T08:08:43;4.90;;;0.80;;
58240;SDS011;45058;55.772;38.224;2023-10-13T08:11:10;4.43;;;0.73;;
58240;SDS011;45058;55.772;38.224;2023-10-13T08:13:54;4.95;;;0.93;;
58240;SDS011;45058;55.772;38.224;2023-10-13T08:16:47;5.22;;;1.00;;
58240;SDS011;45058;55.772;38.224;2023-10-13T08:19:17;5.43;;;0.93;;
58240;SDS011;45058;55.772;38.224;2023-10-13T08:21:54;4.20;;;0.90;;
58240;SDS011;45058;55.772;38.224;2023-10-13T08:24:48;4.38;;;1.05;;
58240;SDS011;45058;55.772;38.224;2023-10-13T08:27:19;5.05;;;1.15;;
58240;SDS011;45058;55.772;38.224;2023-10-13T08:30:14;5.50;;;1.20;;
58240;SDS011;45058;55.772;38.224;2023-10-13T08:32:56;3.70;;;0.88;;
58240;SDS011;45058;55.772;38.224;2023-10-13T08:35:24;2.55;;;0.55;;
58240;SDS011;45058;55.772;38.224;2023-10-13T08:38:03;4.45;;;0.57;;
58240;SDS011;45058;55.772;38.224;2023-10-13T08:40:30;2.03;;;0.75;;
58240;SDS011;45058;55.772;38.224;2023-10-13T08:43:22;3.60;;;0.80;;
58240;SDS011;45058;55.772;38.224;2023-10-13T08:45:49;6.93;;;0.80;;
58240;SDS011;45058;55.772;38.224;2023-10-13T08:48:17;6.10;;;0.75;;
58240;SDS011;45058;55.772;38.224;2023-10-13T08:50:48;4.47;;;1.10;;
58240;SDS011;45058;55.772;38.224;2023-10-13T08:53:16;5.93;;;0.88;;
58240;SDS011;45058;55.772;38.224;2023-10-13T08:56:03;1.80;;;0.88;;
58240;SDS011;45058;55.772;38.224;2023-10-13T08:58:40;4.07;;;0.95;;
58240;SDS011;45058;55.772;38.224;2023-10-13T09:01:20;3.70;;;0.90;;
58240;SDS011;45058;55.772;38.224;2023-10-13T09:04:05;4.90;;;0.70;;
58240;SDS011;45058;55.772;38.224;2023-10-13T09:06:54;3.25;;;0.73;;
58240;SDS011;45058;55.772;38.224;2023-10-13T09:12:13;6.63;;;0.85;;
58240;SDS011;45058;55.772;38.224;2023-10-13T09:14:40;8.32;;;1.70;;
58240;SDS011;45058;55.772;38.224;2023-10-13T09:17:12;4.57;;;1.45;;
58240;SDS011;45058;55.772;38.224;2023-10-13T09:19:51;4.35;;;1.00;;
58240;SDS011;45058;55.772;38.224;2023-10-13T09:22:30;3.97;;;2.20;;
58240;SDS011;45058;55.772;38.224;2023-10-13T09:25:02;10.63;;;1.25;;
58240;SDS011;45058;55.772;38.224;2023-10-13T09:27:39;8.68;;;1.38;;
58240;SDS011;45058;55.772;38.224;2023-10-13T09:30:05;6.57;;;2.13;;
58240;SDS011;45058;55.772;38.224;2023-10-13T09:33:00;7.70;;;1.02;;
58240;SDS011;45058;55.772;38.224;2023-10-13T09:35:27;6.07;;;1.65;;
58240;SDS011;45058;55.772;38.224;2023-10-13T09:37:56;4.25;;;1.15;;
58240;SDS011;45058;55.772;38.224;2023-10-13T09:40:28;6.18;;;1.63;;
58240;SDS011;45058;55.772;38.224;2023-10-13T09:42:58;2.78;;;1.08;;
58240;SDS011;45058;55.772;38.224;2023-10-13T09:45:33;5.38;;;1.20;;
58240;SDS011;45058;55.772;38.224;2023-10-13T09:48:09;7.22;;;1.02;;
58240;SDS011;45058;55.772;38.224;2023-10-13T09:53:35;7.18;;;1.20;;
58240;SDS011;45058;55.772;38.224;2023-10-13T09:56:12;5.75;;;1.20;;
58240;SDS011;45058;55.772;38.224;2023-10-13T10:02:03;4.95;;;1.38;;
58240;SDS011;45058;55.772;38.224;2023-10-13T10:04:24;1.55;;;0.60;;
58240;SDS011;45058;55.772;38.224;2023-10-13T10:06:53;1.52;;;0.60;;
58240;SDS011;45058;55.772;38.224;2023-10-13T10:09:27;2.60;;;0.80;;
58240;SDS011;45058;55.772;38.224;2023-10-13T10:18:17;2.58;;;0.65;;
58240;SDS011;45058;55.772;38.224;2023-10-13T10:20:48;2.35;;;0.60;;
58240;SDS011;45058;55.772;38.224;2023-10-13T10:23:29;4.88;;;0.85;;
58240;SDS011;45058;55.772;38.224;2023-10-13T10:26:13;4.90;;;1.10;;
58240;SDS011;45058;55.772;38.224;2023-10-13T10:28:42;2.53;;;0.60;;
58240;SDS011;45058;55.772;38.224;2023-10-13T10:31:09;3.17;;;1.23;;
58240;SDS011;45058;55.772;38.224;2023-10-13T10:33:39;4.05;;;0.98;;
58240;SDS011;45058;55.772;38.224;2023-10-13T10:36:07;4.97;;;1.60;;
58240;SDS011;45058;55.772;38.224;2023-10-13T10:41:24;12.80;;;1.75;;
58240;SDS011;45058;55.772;38.224;2023-10-13T10:43:55;10.65;;;2.20;;
58240;SDS011;45058;55.772;38.224;2023-10-13T10:46:40;5.95;;;1.45;;
58240;SDS011;45058;55.772;38.224;2023-10-13T10:49:20;3.13;;;1.00;;
58240;SDS011;45058;55.772;38.224;2023-10-13T10:51:56;2.30;;;0.98;;
58240;SDS011;45058;55.772;38.224;2023-10-13T10:54:40;2.80;;;1.00;;
58240;SDS011;45058;55.772;38.224;2023-10-13T10:57:09;3.45;;;1.40;;
58240;SDS011;45058;55.772;38.224;2023-10-13T10:59:44;6.13;;;0.90;;
58240;SDS011;45058;55.772;38.224;2023-10-13T11:02:11;6.65;;;0.95;;
58240;SDS011;45058;55.772;38.224;2023-10-13T11:04:44;4.53;;;1.80;;
58240;SDS011;45058;55.772;38.224;2023-10-13T11:07:23;5.32;;;1.55;;
58240;SDS011;45058;55.772;38.224;2023-10-13T11:10:09;3.75;;;2.17;;
58240;SDS011;45058;55.772;38.224;2023-10-13T11:12:57;6.63;;;2.08;;
58240;SDS011;45058;55.772;38.224;2023-10-13T11:15:47;4.13;;;1.52;;
58240;SDS011;45058;55.772;38.224;2023-10-13T11:18:16;13.00;;;10.15;;
58240;SDS011;45058;55.772;38.224;2023-10-13T11:20:55;8.93;;;5.97;;
58240;SDS011;45058;55.772;38.224;2023-10-13T11:23:22;7.00;;;2.85;;
58240;SDS011;45058;55.772;38.224;2023-10-13T11:26:00;2.92;;;1.23;;
58240;SDS011;45058;55.772;38.224;2023-10-13T11:28:29;13.20;;;8.30;;
58240;SDS011;45058;55.772;38.224;2023-10-13T11:30:58;9.50;;;4.47;;
58240;SDS011;45058;55.772;38.224;2023-10-13T11:33:28;13.07;;;5.13;;
58240;SDS011;45058;55.772;38.224;2023-10-13T11:35:57;11.65;;;6.45;;
58240;SDS011;45058;55.772;38.224;2023-10-13T11:38:30;6.97;;;3.35;;
58240;SDS011;45058;55.772;38.224;2023-10-13T11:41:13;2.95;;;1.02;;
58240;SDS011;45058;55.772;38.224;2023-10-13T11:43:47;4.85;;;1.13;;
58240;SDS011;45058;55.772;38.224;2023-10-13T11:46:34;2.90;;;1.25;;
58240;SDS011;45058;55.772;38.224;2023-10-13T11:49:21;5.75;;;1.30;;
58240;SDS011;45058;55.772;38.224;2023-10-13T11:51:54;6.22;;;2.00;;
58240;SDS011;45058;55.772;38.224;2023-10-13T11:54:34;6.93;;;2.97;;
58240;SDS011;45058;55.772;38.224;2023-10-13T11:57:06;10.23;;;1.75;;
58240;SDS011;45058;55.772;38.224;2023-10-13T11:59:36;4.57;;;1.73;;
58240;SDS011;45058;55.772;38.224;2023-10-13T12:02:12;5.95;;;1.80;;
58240;SDS011;45058;55.772;38.224;2023-10-13T12:04:51;11.57;;;5.40;;
58240;SDS011;45058;55.772;38.224;2023-10-13T12:07:23;5.57;;;2.20;;
58240;SDS011;45058;55.772;38.224;2023-10-13T12:09:55;6.80;;;1.63;;
58240;SDS011;45058;55.772;38.224;2023-10-13T12:12:59;10.13;;;0.90;;
58240;SDS011;45058;55.772;38.224;2023-10-13T12:15:32;4.43;;;1.10;;
58240;SDS011;45058;55.772;38.224;2023-10-13T12:18:15;5.95;;;1.50;;
58240;SDS011;45058;55.772;38.224;2023-10-13T12:20:45;2.60;;;0.50;;
58240;SDS011;45058;55.772;38.224;2023-10-13T12:23:15;2.00;;;0.60;;
58240;SDS011;45058;55.772;38.224;2023-10-13T12:25:43;7.60;;;2.20;;
58240;SDS011;45058;55.772;38.224;2023-10-13T12:28:28;6.03;;;1.75;;
58240;SDS011;45058;55.772;38.224;2023-10-13T12:31:03;5.80;;;2.03;;
58240;SDS011;45058;55.772;38.224;2023-10-13T12:33:36;3.65;;;1.40;;
58240;SDS011;45058;55.772;38.224;2023-10-13T12:36:07;10.00;;;1.50;;
58240;SDS011;45058;55.772;38.224;2023-10-13T12:38:37;4.47;;;0.93;;
58240;SDS011;45058;55.772;38.224;2023-10-13T12:41:13;8.13;;;1.92;;
58240;SDS011;45058;55.772;38.224;2023-10-13T12:44:02;9.15;;;1.85;;
58240;SDS011;45058;55.772;38.224;2023-10-13T12:46:47;3.15;;;1.60;;
58240;SDS011;45058;55.772;38.224;2023-10-13T12:49:36;5.78;;;2.28;;
58240;SDS011;45058;55.772;38.224;2023-10-13T12:52:09;3.55;;;2.08;;
58240;SDS011;45058;55.772;38.224;2023-10-13T12:54:58;9.90;;;2.50;;
58240;SDS011;45058;55.772;38.224;2023-10-13T12:57:33;11.68;;;4.47;;
58240;SDS011;45058;55.772;38.224;2023-10-13T13:00:12;19.65;;;11.25;;
58240;SDS011;45058;55.772;38.224;2023-10-13T13:02:51;9.15;;;5.20;;
58240;SDS011;45058;55.772;38.224;2023-10-13T13:05:37;5.43;;;1.85;;
58240;SDS011;45058;55.772;38.224;2023-10-13T13:08:10;5.78;;;2.05;;
58240;SDS011;45058;55.772;38.224;2023-10-13T13:10:38;5.45;;;1.25;;
58240;SDS011;45058;55.772;38.224;2023-10-13T13:13:17;3.03;;;1.10;;
58240;SDS011;45058;55.772;38.224;2023-10-13T13:15:50;4.90;;;2.28;;
58240;SDS011;45058;55.772;38.224;2023-10-13T13:18:22;7.10;;;1.83;;
58240;SDS011;45058;55.772;38.224;2023-10-13T13:20:55;9.02;;;2.13;;
58240;SDS011;45058;55.772;38.224;2023-10-13T13:23:25;11.70;;;3.20;;
58240;SDS011;45058;55.772;38.224;2023-10-13T13:25:57;13.93;;;7.38;;
58240;SDS011;45058;55.772;38.224;2023-10-13T13:28:26;24.65;;;14.35;;
58240;SDS011;45058;55.772;38.224;2023-10-13T13:30:55;14.88;;;8.98;;
58240;SDS011;45058;55.772;38.224;2023-10-13T13:33:25;8.77;;;4.38;;
58240;SDS011;45058;55.772;38.224;2023-10-13T13:35:58;18.40;;;7.53;;
58240;SDS011;45058;55.772;38.224;2023-10-13T13:38:34;38.28;;;20.15;;
58240;SDS011;45058;55.772;38.224;2023-10-13T13:41:01;22.50;;;10.70;;
58240;SDS011;45058;55.772;38.224;2023-10-13T13:43:35;26.17;;;12.95;;
58240;SDS011;45058;55.772;38.224;2023-10-13T13:46:17;11.68;;;6.38;;
58240;SDS011;45058;55.772;38.224;2023-10-13T13:48:59;18.60;;;10.27;;
58240;SDS011;45058;55.772;38.224;2023-10-13T13:51:44;15.02;;;6.45;;
58240;SDS011;45058;55.772;38.224;2023-10-13T13:54:18;16.15;;;8.20;;
58240;SDS011;45058;55.772;38.224;2023-10-13T13:56:46;16.50;;;6.82;;
58240;SDS011;45058;55.772;38.224;2023-10-13T13:59:16;15.07;;;5.40;;
58240;SDS011;45058;55.772;38.224;2023-10-13T14:01:51;14.23;;;5.85;;
58240;SDS011;45058;55.772;38.224;2023-10-13T14:04:18;10.93;;;5.00;;
58240;SDS011;45058;55.772;38.224;2023-10-13T14:06:57;12.13;;;5.13;;
58240;SDS011;45058;55.772;38.224;2023-10-13T14:09:25;16.02;;;5.53;;
58240;SDS011;45058;55.772;38.224;2023-10-13T14:12:09;12.70;;;4.70;;
58240;SDS011;45058;55.772;38.224;2023-10-13T14:14:54;15.98;;;5.53;;
58240;SDS011;45058;55.772;38.224;2023-10-13T14:17:24;16.75;;;5.20;;
58240;SDS011;45058;55.772;38.224;2023-10-13T14:20:01;13.50;;;4.82;;
58240;SDS011;45058;55.772;38.224;2023-10-13T14:22:50;17.17;;;4.15;;
58240;SDS011;45058;55.772;38.224;2023-10-13T14:25:19;17.65;;;5.38;;
58240;SDS011;45058;55.772;38.224;2023-10-13T14:27:52;14.60;;;4.13;;
58240;SDS011;45058;55.772;38.224;2023-10-13T14:30:22;21.00;;;8.82;;
58240;SDS011;45058;55.772;38.224;2023-10-13T14:32:52;31.90;;;13.02;;
58240;SDS011;45058;55.772;38.224;2023-10-13T14:35:21;17.27;;;6.00;;
58240;SDS011;45058;55.772;38.224;2023-10-13T14:37:51;13.52;;;5.90;;
58240;SDS011;45058;55.772;38.224;2023-10-13T14:40:19;17.40;;;6.63;;
58240;SDS011;45058;55.772;38.224;2023-10-13T14:42:47;22.42;;;9.23;;
58240;SDS011;45058;55.772;38.224;2023-10-13T14:45:14;27.27;;;10.95;;
58240;SDS011;45058;55.772;38.224;2023-10-13T14:47:47;14.75;;;7.18;;
58240;SDS011;45058;55.772;38.224;2023-10-13T14:50:23;38.20;;;17.27;;
58240;SDS011;45058;55.772;38.224;2023-10-13T14:52:52;37.35;;;17.27;;
58240;SDS011;45058;55.772;38.224;2023-10-13T14:55:23;20.17;;;6.95;;
58240;SDS011;45058;55.772;38.224;2023-10-13T14:58:04;8.40;;;4.35;;
58240;SDS011;45058;55.772;38.224;2023-10-13T15:00:36;10.48;;;3.92;;
58240;SDS011;45058;55.772;38.224;2023-10-13T15:03:32;18.95;;;4.35;;
58240;SDS011;45058;55.772;38.224;2023-10-13T15:06:05;12.43;;;4.47;;
58240;SDS011;45058;55.772;38.224;2023-10-13T15:08:51;17.33;;;5.45;;
58240;SDS011;45058;55.772;38.224;2023-10-13T15:11:20;15.32;;;5.88;;
58240;SDS011;45058;55.772;38.224;2023-10-13T15:13:52;13.45;;;4.70;;
58240;SDS011;45058;55.772;38.224;2023-10-13T15:16:23;10.27;;;4.03;;
58240;SDS011;45058;55.772;38.224;2023-10-13T15:18:52;11.63;;;3.78;;
58240;SDS011;45058;55.772;38.224;2023-10-13T15:21:27;11.32;;;3.05;;
58240;SDS011;45058;55.772;38.224;2023-10-13T15:24:01;14.68;;;4.10;;
58240;SDS011;45058;55.772;38.224;2023-10-13T15:26:50;7.80;;;3.63;;
58240;SDS011;45058;55.772;38.224;2023-10-13T15:29:22;11.93;;;4.63;;
58240;SDS011;45058;55.772;38.224;2023-10-13T15:31:56;17.15;;;4.97;;
58240;SDS011;45058;55.772;38.224;2023-10-13T15:34:53;11.80;;;3.65;;
58240;SDS011;45058;55.772;38.224;2023-10-13T15:37:26;15.15;;;4.30;;
58240;SDS011;45058;55.772;38.224;2023-10-13T15:40:00;10.50;;;4.60;;
58240;SDS011;45058;55.772;38.224;2023-10-13T15:42:44;14.52;;;5.22;;
58240;SDS011;45058;55.772;38.224;2023-10-13T15:45:16;12.68;;;5.13;;
58240;SDS011;45058;55.772;38.224;2023-10-13T15:47:52;15.27;;;4.25;;
58240;SDS011;45058;55.772;38.224;2023-10-13T15:50:19;11.95;;;4.10;;
58240;SDS011;45058;55.772;38.224;2023-10-13T15:52:55;17.23;;;4.95;;
58240;SDS011;45058;55.772;38.224;2023-10-13T15:55:24;23.02;;;4.65;;